createdAt,value
2023-03-16T00:00:45.789Z,95.20
2023-03-16T00:03:19.472Z,94.70
2023-03-16T00:05:50.105Z,94.40
2023-03-16T00:08:17.548Z,94.10
2023-03-16T00:10:47.249Z,95.30
2023-03-16T00:13:15.041Z,95.50
2023-03-16T00:15:42.100Z,95.30
2023-03-16T00:18:08.825Z,94.80
2023-03-16T00:20:35.736Z,94.40
2023-03-16T00:23:02.909Z,94.70
2023-03-16T00:25:29.873Z,94.70
2023-03-16T00:27:56.525Z,95.70
2023-03-16T00:30:23.227Z,95.90
2023-03-16T00:32:49.949Z,95.50
2023-03-16T00:35:16.660Z,95.10
2023-03-16T00:37:44.307Z,95.50
2023-03-16T00:40:12.675Z,96.00
2023-03-16T00:42:39.375Z,96.60
2023-03-16T00:45:06.376Z,96.60
2023-03-16T00:47:34.163Z,96.00
2023-03-16T00:50:01.336Z,96.00
2023-03-16T00:52:28.640Z,95.70
2023-03-16T00:54:56.285Z,95.10
2023-03-16T00:57:25.186Z,94.40
2023-03-16T00:59:52.580Z,95.10
2023-03-16T01:02:23.485Z,96.00
2023-03-16T01:04:51.808Z,96.00
2023-03-16T01:07:18.785Z,96.00
2023-03-16T01:09:45.494Z,96.40
2023-03-16T01:12:13.854Z,96.10
2023-03-16T01:14:40.901Z,95.90
2023-03-16T01:17:08.995Z,96.30
2023-03-16T01:19:36.502Z,97.10
2023-03-16T01:22:04.282Z,97.20
2023-03-16T01:24:31.349Z,96.40
2023-03-16T01:26:58.071Z,96.10
2023-03-16T01:29:25.210Z,96.40
2023-03-16T01:31:51.946Z,96.40
2023-03-16T01:34:18.801Z,96.00
2023-03-16T01:36:49.638Z,96.20
2023-03-16T01:39:16.792Z,96.70
2023-03-16T01:41:43.940Z,96.80
2023-03-16T01:44:14.842Z,96.40
2023-03-16T01:46:42.603Z,96.10
2023-03-16T01:49:23.851Z,95.90
2023-03-16T01:51:56.362Z,96.10
2023-03-16T01:54:26.538Z,97.20
2023-03-16T01:57:05.964Z,97.30
2023-03-16T01:59:48.566Z,96.50
2023-03-16T02:02:18.684Z,97.80
2023-03-16T02:05:07.159Z,97.80
2023-03-16T02:07:39.783Z,98.20
2023-03-16T02:10:07.468Z,97.40
2023-03-16T02:12:34.141Z,97.30
2023-03-16T02:15:00.788Z,97.40
2023-03-16T02:17:28.655Z,96.80
2023-03-16T02:20:01.476Z,96.60
2023-03-16T02:22:28.433Z,96.40
2023-03-16T02:24:55.145Z,96.30
2023-03-16T02:27:48.070Z,97.20
2023-03-16T02:30:16.108Z,97.30
2023-03-16T02:32:43.979Z,96.90
2023-03-16T02:35:11.041Z,97.00
2023-03-16T02:37:37.726Z,97.20
2023-03-16T02:40:33.840Z,98.00
2023-03-16T02:43:05.708Z,97.70
2023-03-16T02:45:52.796Z,97.20
2023-03-16T02:48:45.715Z,97.40
2023-03-16T02:51:12.538Z,97.80
2023-03-16T02:53:39.434Z,97.60
2023-03-16T02:56:06.337Z,97.30
2023-03-16T02:58:33.025Z,97.80
2023-03-16T03:01:01.467Z,98.10
2023-03-16T03:03:28.303Z,98.10
2023-03-16T03:05:55.135Z,98.10
2023-03-16T03:08:23.512Z,97.80
2023-03-16T03:10:50.322Z,97.30
2023-03-16T03:13:16.981Z,98.30
2023-03-16T03:15:43.727Z,99.00
2023-03-16T03:18:10.413Z,99.00
2023-03-16T03:20:37.088Z,98.60
2023-03-16T03:23:03.756Z,98.40
2023-03-16T03:25:30.423Z,99.10
2023-03-16T03:27:57.157Z,99.30
2023-03-16T03:30:24.754Z,98.40
2023-03-16T03:32:52.521Z,98.90
2023-03-16T03:35:19.774Z,99.20
2023-03-16T03:37:46.433Z,98.60
2023-03-16T03:40:14.578Z,98.20
2023-03-16T03:42:41.833Z,97.60
2023-03-16T03:45:09.301Z,96.50
2023-03-16T03:47:35.948Z,97.50
2023-03-16T03:50:02.842Z,98.20
2023-03-16T03:52:29.526Z,98.60
2023-03-16T03:54:56.222Z,98.20
2023-03-16T03:57:22.987Z,97.60
2023-03-16T03:59:49.654Z,97.40
2023-03-16T04:02:16.457Z,97.50
2023-03-16T04:04:43.689Z,97.60
2023-03-16T04:07:10.694Z,97.80
2023-03-16T04:09:37.493Z,98.30
2023-03-16T04:12:05.626Z,98.00
2023-03-16T04:14:32.313Z,98.80
2023-03-16T04:16:59.111Z,99.00
2023-03-16T04:19:25.780Z,98.60
2023-03-16T04:21:52.605Z,98.60
2023-03-16T04:24:19.375Z,98.30
2023-03-16T04:26:46.515Z,97.90
2023-03-16T04:29:14.489Z,98.50
2023-03-16T04:31:42.503Z,98.40
2023-03-16T04:34:09.806Z,97.90
2023-03-16T04:36:36.500Z,98.00
2023-03-16T04:39:04.769Z,97.60
2023-03-16T04:41:31.968Z,97.30
2023-03-16T04:44:00.490Z,97.80
2023-03-16T04:46:27.418Z,98.60
2023-03-16T04:48:54.238Z,98.80
2023-03-16T04:51:21.614Z,98.60
2023-03-16T04:53:48.338Z,98.30
2023-03-16T04:56:19.758Z,98.70
2023-03-16T04:58:47.587Z,98.30
2023-03-16T05:01:14.583Z,98.00
2023-03-16T05:03:41.645Z,98.10
2023-03-16T05:06:08.333Z,98.90
2023-03-16T05:08:34.976Z,99.20
2023-03-16T05:11:01.892Z,98.90
2023-03-16T05:13:28.578Z,99.00
2023-03-16T05:15:55.369Z,98.90
2023-03-16T05:18:22.607Z,98.40
2023-03-16T05:20:49.909Z,98.20
2023-03-16T05:23:16.792Z,98.20
2023-03-16T05:25:45.008Z,98.50
2023-03-16T05:28:13.409Z,98.40
2023-03-16T05:30:40.196Z,98.10
2023-03-16T05:33:27.934Z,97.90
2023-03-16T05:35:54.658Z,98.00
2023-03-16T05:38:21.442Z,98.30
2023-03-16T05:40:53.021Z,98.90
2023-03-16T05:43:20.439Z,98.90
2023-03-16T05:45:47.790Z,98.90
2023-03-16T05:48:15.029Z,99.00
2023-03-16T05:50:42.226Z,99.30
2023-03-16T05:53:09.062Z,98.90
2023-03-16T05:55:35.754Z,99.30
2023-03-16T05:58:04.400Z,99.40
2023-03-16T06:00:32.703Z,99.00
2023-03-16T06:02:59.997Z,98.30
2023-03-16T06:05:28.601Z,98.00
2023-03-16T06:07:55.329Z,97.90
2023-03-16T06:10:22.056Z,98.20
2023-03-16T06:12:48.720Z,99.20
2023-03-16T06:15:15.375Z,99.00
2023-03-16T06:17:42.084Z,98.70
2023-03-16T06:20:11.292Z,98.60
2023-03-16T06:22:38.829Z,99.50
2023-03-16T06:25:05.877Z,99.90
2023-03-16T06:27:32.601Z,99.50
2023-03-16T06:29:59.303Z,99.10
2023-03-16T06:32:26.173Z,98.70
2023-03-16T06:34:53.347Z,98.40
2023-03-16T06:37:20.246Z,98.50
2023-03-16T06:39:53.848Z,98.20
2023-03-16T06:42:20.502Z,97.60
2023-03-16T06:44:47.223Z,97.40
2023-03-16T06:47:13.932Z,97.60
2023-03-16T06:49:40.564Z,97.40
2023-03-16T06:52:07.387Z,97.60
2023-03-16T06:54:35.313Z,97.70
2023-03-16T06:57:02.083Z,97.20
2023-03-16T06:59:28.904Z,97.30
2023-03-16T07:01:55.594Z,97.20
2023-03-16T07:04:22.510Z,96.30
2023-03-16T07:06:49.533Z,96.40
2023-03-16T07:09:16.370Z,95.70
2023-03-16T07:11:43.156Z,93.20
2023-03-16T07:14:10.002Z,93.60
2023-03-16T07:16:36.769Z,92.80
2023-03-16T07:19:03.661Z,91.00
2023-03-16T07:21:32.798Z,88.80
2023-03-16T07:24:00.181Z,88.70
2023-03-16T07:26:27.044Z,85.80
2023-03-16T07:32:16.033Z,83.40
2023-03-16T07:35:14.860Z,79.70
2023-03-16T07:41:12.733Z,79.40
2023-03-16T07:43:39.612Z,77.50
2023-03-16T07:46:06.789Z,77.30
2023-03-16T07:52:06.546Z,78.00
2023-03-16T07:54:34.428Z,77.40
2023-03-16T07:57:30.260Z,76.50
2023-03-16T08:03:25.284Z,73.90
2023-03-16T08:05:52.858Z,74.70
2023-03-16T08:08:20.284Z,73.10
2023-03-16T08:10:47.887Z,73.50
2023-03-16T08:16:37.770Z,72.00
2023-03-16T08:22:38.429Z,71.20
2023-03-16T08:28:30.824Z,69.20
2023-03-16T08:30:58.891Z,67.40
2023-03-16T08:33:26.128Z,66.90
2023-03-16T08:35:53.069Z,64.00
2023-03-16T08:41:52.403Z,66.40
2023-03-16T08:44:20.174Z,65.90
2023-03-16T08:46:46.950Z,65.30
2023-03-16T08:49:14.461Z,64.10
2023-03-16T08:51:42.906Z,62.20
2023-03-16T08:54:10.882Z,58.00
2023-03-16T08:56:37.729Z,60.30
2023-03-16T08:59:06.254Z,58.90
2023-03-16T09:01:34.250Z,58.10
2023-03-16T09:04:01.170Z,58.50
2023-03-16T09:06:27.940Z,57.70
2023-03-16T09:12:20.646Z,60.10
2023-03-16T09:14:49.025Z,59.10
2023-03-16T09:17:15.738Z,58.70
2023-03-16T09:19:51.951Z,58.20
2023-03-16T09:22:20.309Z,58.40
2023-03-16T09:24:48.457Z,57.50
2023-03-16T09:27:15.580Z,56.40
2023-03-16T09:29:42.906Z,58.60
2023-03-16T09:32:09.788Z,57.60
2023-03-16T09:34:36.732Z,57.20
2023-03-16T09:37:03.718Z,57.00
2023-03-16T09:40:12.048Z,55.80
2023-03-16T09:42:46.036Z,55.70
2023-03-16T09:45:24.617Z,55.90
2023-03-16T09:47:52.080Z,54.10
2023-03-16T09:50:32.436Z,52.30
2023-03-16T09:53:16.314Z,53.20
2023-03-16T09:55:45.494Z,52.30
2023-03-16T09:58:19.615Z,53.40
2023-03-16T10:00:49.065Z,51.40
2023-03-16T10:03:21.484Z,52.40
2023-03-16T10:05:49.466Z,49.50
2023-03-16T10:08:21.084Z,50.30
2023-03-16T10:11:06.976Z,51.10
2023-03-16T10:13:37.689Z,50.90
2023-03-16T10:19:42.301Z,51.80
2023-03-16T10:22:17.909Z,50.50
2023-03-16T10:25:04.882Z,51.40
2023-03-16T10:27:33.105Z,48.50
2023-03-16T10:30:04.699Z,51.10
2023-03-16T10:32:34.594Z,48.40
2023-03-16T10:35:04.817Z,49.00
2023-03-16T10:37:32.752Z,49.30
2023-03-16T10:40:00.804Z,48.60
2023-03-16T10:42:27.899Z,48.90
2023-03-16T10:45:01.021Z,49.50
2023-03-16T10:51:17.108Z,48.00
2023-03-16T10:53:44.715Z,48.30
2023-03-16T10:59:35.081Z,47.70
2023-03-16T11:02:02.216Z,46.30
2023-03-16T11:04:33.342Z,46.00
2023-03-16T11:06:59.992Z,46.80
2023-03-16T11:09:33.701Z,48.00
2023-03-16T11:12:01.421Z,48.10
2023-03-16T11:14:28.715Z,47.40
2023-03-16T11:16:55.491Z,43.90
2023-03-16T11:19:27.297Z,45.50
2023-03-16T11:21:59.880Z,45.50
2023-03-16T11:24:57.666Z,47.00
2023-03-16T11:27:26.343Z,45.80
2023-03-16T11:30:02.264Z,45.20
2023-03-16T11:32:39.291Z,44.90
2023-03-16T11:35:14.811Z,43.80
2023-03-16T11:38:02.034Z,47.60
2023-03-16T11:40:33.231Z,47.80
2023-03-16T11:43:05.739Z,44.10
2023-03-16T11:45:45.656Z,44.10
2023-03-16T11:48:41.779Z,45.40
2023-03-16T11:58:07.267Z,43.10
2023-03-16T12:00:46.750Z,45.00
2023-03-16T12:03:13.605Z,46.10
2023-03-16T12:05:44.961Z,45.90
2023-03-16T12:18:45.041Z,45.80
2023-03-16T12:21:17.280Z,45.60
2023-03-16T12:24:02.926Z,46.20
2023-03-16T12:26:34.730Z,45.20
2023-03-16T12:32:33.793Z,43.80
2023-03-16T12:35:06.321Z,44.80
2023-03-16T12:37:39.530Z,43.80
2023-03-16T12:40:25.043Z,42.70
2023-03-16T12:43:03.027Z,44.70
2023-03-16T12:45:44.692Z,44.10
2023-03-16T12:48:17.418Z,41.90
2023-03-16T12:50:49.222Z,45.40
2023-03-16T12:53:45.302Z,46.20
2023-03-16T12:56:30.215Z,46.60
2023-03-16T12:59:01.592Z,46.10
2023-03-16T13:01:29.520Z,45.90
2023-03-16T13:04:09.124Z,46.80
2023-03-16T13:06:36.538Z,42.60
2023-03-16T13:12:38.456Z,43.60
2023-03-16T13:15:20.411Z,41.40
2023-03-16T13:25:03.248Z,44.20
2023-03-16T13:27:53.376Z,43.90
2023-03-16T13:34:04.293Z,41.90
2023-03-16T13:40:01.791Z,44.10
2023-03-16T13:42:33.249Z,42.00
2023-03-16T13:48:20.162Z,41.90
2023-03-16T13:51:18.194Z,40.50
2023-03-16T13:53:45.108Z,40.60
2023-03-16T13:56:22.727Z,40.60
2023-03-16T14:02:36.407Z,40.70
2023-03-16T14:12:30.370Z,43.30
2023-03-16T14:15:05.297Z,42.30
2023-03-16T14:17:32.388Z,42.30
2023-03-16T14:27:12.539Z,38.30
2023-03-16T14:29:42.322Z,37.70
2023-03-16T14:53:12.526Z,42.20
2023-03-16T14:59:01.151Z,42.10
2023-03-16T15:01:27.822Z,43.30
2023-03-16T15:03:54.578Z,42.30
2023-03-16T15:06:21.716Z,41.40
2023-03-16T15:08:48.803Z,42.60
2023-03-16T15:11:21.349Z,41.20
2023-03-16T15:13:48.633Z,42.20
2023-03-16T15:16:15.475Z,43.30
2023-03-16T15:18:42.664Z,44.00
2023-03-16T15:21:46.022Z,43.40
2023-03-16T15:24:12.727Z,44.00
2023-03-16T15:26:39.431Z,44.00
2023-03-16T15:29:06.444Z,43.50
2023-03-16T15:31:33.301Z,44.20
2023-03-16T15:34:00.006Z,43.50
2023-03-16T15:36:26.696Z,44.50
2023-03-16T15:38:54.370Z,44.60
2023-03-16T15:59:28.248Z,44.20
2023-03-16T16:08:47.234Z,46.30
2023-03-16T16:14:48.439Z,46.70
2023-03-16T16:20:46.556Z,46.30
2023-03-16T16:23:13.953Z,45.60
2023-03-16T16:26:00.790Z,45.80
2023-03-16T16:35:27.749Z,48.80
2023-03-16T16:37:54.686Z,48.40
2023-03-16T16:40:23.223Z,48.00
2023-03-16T16:42:51.782Z,49.80
2023-03-16T16:48:47.865Z,51.80
2023-03-16T16:54:42.254Z,49.20
2023-03-16T17:04:25.410Z,50.90
2023-03-16T17:06:55.527Z,51.90
2023-03-16T17:09:23.362Z,55.30
2023-03-16T17:11:51.138Z,56.80
2023-03-16T17:14:19.753Z,57.60
2023-03-16T17:17:15.063Z,57.20
2023-03-16T17:19:46.433Z,57.60
2023-03-16T17:22:31.255Z,59.50
2023-03-16T17:24:58.603Z,60.40
2023-03-16T17:27:29.337Z,61.70
2023-03-16T17:29:56.998Z,61.00
2023-03-16T17:32:23.804Z,61.80
2023-03-16T17:34:51.006Z,63.60
2023-03-16T17:40:59.308Z,64.70
2023-03-16T17:43:26.127Z,64.40
2023-03-16T17:45:53.314Z,65.60
2023-03-16T17:48:21.468Z,66.30
2023-03-16T17:50:48.630Z,65.30
2023-03-16T17:53:16.181Z,65.70
2023-03-16T17:55:43.815Z,66.60
2023-03-16T17:58:21.093Z,68.60
2023-03-16T18:00:49.427Z,69.70
2023-03-16T18:03:17.648Z,69.40
2023-03-16T18:05:44.529Z,69.50
2023-03-16T18:08:16.315Z,70.10
2023-03-16T18:10:45.277Z,70.40
2023-03-16T18:13:22.632Z,71.30
2023-03-16T18:15:50.540Z,70.40
2023-03-16T18:18:20.526Z,69.10
2023-03-16T18:20:48.321Z,69.30
2023-03-16T18:23:25.745Z,69.70
2023-03-16T18:25:53.923Z,71.40
2023-03-16T18:28:21.926Z,71.90
2023-03-16T18:30:52.434Z,72.10
2023-03-16T18:33:25.201Z,71.70
2023-03-16T18:35:52.734Z,72.30
2023-03-16T18:38:19.489Z,71.40
2023-03-16T18:40:47.476Z,71.60
2023-03-16T18:43:15.119Z,72.30
2023-03-16T18:45:41.840Z,72.10
2023-03-16T18:48:12.161Z,74.00
2023-03-16T18:50:43.600Z,72.40
2023-03-16T18:53:14.733Z,72.60
2023-03-16T18:55:44.988Z,74.10
2023-03-16T18:58:16.682Z,73.00
2023-03-16T19:00:45.608Z,74.60
2023-03-16T19:03:24.072Z,73.70
2023-03-16T19:05:52.160Z,74.30
2023-03-16T19:08:19.131Z,73.50
2023-03-16T19:10:49.546Z,73.20
2023-03-16T19:13:19.204Z,73.20
2023-03-16T19:15:46.809Z,72.60
2023-03-16T19:18:13.645Z,72.80
2023-03-16T19:24:37.820Z,72.50
2023-03-16T19:27:06.932Z,71.60
2023-03-16T19:29:35.159Z,73.10
2023-03-16T19:32:02.265Z,73.70
2023-03-16T19:34:29.139Z,74.10
2023-03-16T19:36:55.954Z,75.40
2023-03-16T19:39:22.648Z,76.70
2023-03-16T19:41:54.095Z,75.20
2023-03-16T19:44:22.345Z,75.50
2023-03-16T19:46:49.955Z,75.70
2023-03-16T19:49:45.777Z,76.30
2023-03-16T19:52:12.576Z,75.80
2023-03-16T19:54:42.454Z,76.00
2023-03-16T19:57:14.423Z,75.60
2023-03-16T19:59:41.750Z,76.00
2023-03-16T20:02:22.998Z,75.70
2023-03-16T20:04:49.665Z,75.40
2023-03-16T20:07:17.132Z,76.30
2023-03-16T20:09:44.210Z,78.10
2023-03-16T20:12:24.397Z,77.70
2023-03-16T20:14:51.458Z,77.30
2023-03-16T20:17:26.000Z,78.30
2023-03-16T20:19:53.047Z,79.50
2023-03-16T20:22:21.458Z,80.00
2023-03-16T20:24:51.919Z,82.90
2023-03-16T20:27:35.435Z,82.10
2023-03-16T20:30:32.415Z,82.20
2023-03-16T20:33:12.508Z,83.80
2023-03-16T20:35:43.845Z,83.10
2023-03-16T20:38:22.414Z,82.90
2023-03-16T20:40:53.997Z,81.90
2023-03-16T20:43:30.010Z,82.40
2023-03-16T20:45:58.982Z,82.40
2023-03-16T20:48:26.066Z,82.70
2023-03-16T20:50:57.208Z,82.40
2023-03-16T20:53:23.898Z,83.80
2023-03-16T20:55:59.930Z,85.40
2023-03-16T20:58:28.007Z,85.60
2023-03-16T21:00:58.471Z,85.00
2023-03-16T21:03:27.631Z,86.30
2023-03-16T21:05:55.418Z,86.30
2023-03-16T21:08:22.181Z,85.40
2023-03-16T21:10:49.977Z,84.20
2023-03-16T21:13:19.436Z,84.00
2023-03-16T21:15:46.857Z,84.80
2023-03-16T21:18:16.061Z,85.20
2023-03-16T21:20:42.729Z,84.50
2023-03-16T21:23:12.873Z,86.50
2023-03-16T21:25:42.033Z,86.60
2023-03-16T21:28:10.894Z,86.20
2023-03-16T21:30:39.544Z,85.10
2023-03-16T21:33:16.051Z,85.60
2023-03-16T21:35:42.733Z,83.50
2023-03-16T21:38:14.125Z,83.90
2023-03-16T21:40:40.794Z,85.90
2023-03-16T21:43:10.125Z,87.30
2023-03-16T21:45:38.522Z,86.00
2023-03-16T21:48:05.358Z,85.90
2023-03-16T21:50:33.652Z,86.50
2023-03-16T21:53:00.970Z,88.20
2023-03-16T21:55:29.307Z,88.80
2023-03-16T21:57:56.980Z,87.70
2023-03-16T22:00:25.723Z,88.40
2023-03-16T22:02:54.121Z,87.60
2023-03-16T22:05:30.223Z,87.20
2023-03-16T22:07:58.709Z,88.40
2023-03-16T22:10:27.653Z,89.70
2023-03-16T22:12:54.722Z,90.20
2023-03-16T22:15:22.216Z,88.60
2023-03-16T22:17:48.995Z,89.30
2023-03-16T22:20:21.820Z,89.10
2023-03-16T22:22:48.946Z,88.30
2023-03-16T22:25:17.724Z,88.40
2023-03-16T22:27:45.144Z,90.00
2023-03-16T22:30:19.039Z,89.70
2023-03-16T22:32:46.871Z,90.30
2023-03-16T22:35:22.885Z,90.60
2023-03-16T22:37:49.540Z,90.40
2023-03-16T22:40:19.504Z,90.30
2023-03-16T22:42:46.177Z,90.60
2023-03-16T22:45:23.338Z,90.90
2023-03-16T22:47:50.202Z,90.70
2023-03-16T22:50:17.949Z,90.50
2023-03-16T22:52:46.279Z,90.20
2023-03-16T22:55:17.259Z,90.10
2023-03-16T22:57:44.129Z,90.70
2023-03-16T23:00:28.758Z,91.30
2023-03-16T23:02:56.162Z,91.30
2023-03-16T23:05:27.488Z,91.20
2023-03-16T23:07:55.085Z,90.50
2023-03-16T23:10:23.880Z,91.00
2023-03-16T23:12:51.501Z,90.60
2023-03-16T23:15:20.071Z,90.50
2023-03-16T23:17:47.099Z,91.20
2023-03-16T23:20:21.569Z,91.10
2023-03-16T23:22:48.413Z,91.50
2023-03-16T23:25:15.542Z,91.20
2023-03-16T23:27:42.585Z,91.00
2023-03-16T23:30:27.921Z,91.70
2023-03-16T23:32:55.631Z,91.50
2023-03-16T23:35:24.133Z,90.90
2023-03-16T23:37:51.763Z,90.70
2023-03-16T23:40:19.741Z,90.00
2023-03-16T23:42:46.691Z,89.70
2023-03-16T23:45:22.519Z,89.50
2023-03-16T23:47:50.160Z,89.30
2023-03-16T23:50:20.680Z,90.10
2023-03-16T23:52:47.314Z,89.60
2023-03-16T23:55:14.387Z,88.80
2023-03-16T23:57:41.509Z,88.50
